Time;durP1;ratioP1;P1;durP2;ratioP2;P2;SDS_P1;SDS_P2;PMS_P1;PMS_P2;Temp;Humidity;BMP_temperature;BMP_pressure;BME280_temperature;BME280_humidity;BME280_pressure;Samples;Min_cycle;Max_cycle;Signal;HPM_P1;HPM_P2
2022/12/13 00:00:41;;;;;;;33.08;11.70;;;;;;;-8.37;100.00;101363.28;5092732;28;20482;-76
2022/12/13 00:03:07;;;;;;;27.15;12.38;;;;;;;-8.39;100.00;101365.03;5092706;28;20028;-77
2022/12/13 00:05:32;;;;;;;31.50;13.40;;;;;;;-8.39;100.00;101364.16;5092719;28;20058;-76
2022/12/13 00:07:59;;;;;;;25.30;11.70;;;;;;;-8.41;100.00;101364.16;5092669;28;20031;-77
2022/12/13 00:10:24;;;;;;;26.30;12.13;;;;;;;-8.43;100.00;101365.91;5092862;28;20020;-76
2022/12/13 00:12:50;;;;;;;27.67;13.05;;;;;;;-8.45;100.00;101361.63;5092705;28;20024;-76
2022/12/13 00:15:15;;;;;;;23.55;12.32;;;;;;;-8.45;100.00;101361.63;5092245;28;20035;-76
2022/12/13 00:17:40;;;;;;;25.63;12.77;;;;;;;-8.47;100.00;101359.06;5092820;28;20211;-76
2022/12/13 00:20:06;;;;;;;23.80;11.88;;;;;;;-8.49;100.00;101358.22;5092535;28;20059;-77
2022/12/13 00:22:31;;;;;;;24.10;12.32;;;;;;;-8.51;100.00;101355.66;5092920;28;20456;-77
2022/12/13 00:24:57;;;;;;;26.08;11.65;;;;;;;-8.52;100.00;101355.66;5093012;28;20035;-78
2022/12/13 00:27:22;;;;;;;27.00;11.77;;;;;;;-8.52;100.00;101353.91;5096049;28;20032;-77
2022/12/13 00:29:48;;;;;;;29.70;11.93;;;;;;;-8.54;100.00;101357.34;5096440;28;20028;-76
2022/12/13 00:32:13;;;;;;;23.88;11.75;;;;;;;-8.56;100.00;101353.94;5096454;28;20028;-75
2022/12/13 00:34:39;;;;;;;27.52;12.45;;;;;;;-8.53;100.00;101362.50;5097026;28;20024;-76
2022/12/13 00:37:04;;;;;;;24.20;12.10;;;;;;;-8.52;100.00;101350.50;5096055;28;20123;-81
2022/12/13 00:39:30;;;;;;;25.17;12.90;;;;;;;-8.48;100.00;101359.06;5096031;28;20028;-75
2022/12/13 00:41:55;;;;;;;25.75;12.25;;;;;;;-8.49;100.00;101359.91;5096009;28;20028;-76
2022/12/13 00:44:21;;;;;;;29.92;12.80;;;;;;;-8.52;100.00;101350.50;5095915;28;20079;-75
2022/12/13 00:46:46;;;;;;;29.70;13.40;;;;;;;-8.53;100.00;101351.34;5096282;28;20058;-76
2022/12/13 00:49:12;;;;;;;29.75;13.27;;;;;;;-8.57;100.00;101345.34;5095827;28;20034;-76
2022/12/13 00:51:38;;;;;;;28.58;12.95;;;;;;;-8.56;100.00;101341.03;5096267;28;20077;-75
2022/12/13 00:54:05;;;;;;;22.27;11.98;;;;;;;-8.55;100.00;101340.19;5095326;28;20363;-78
2022/12/13 00:56:31;;;;;;;25.40;11.95;;;;;;;-8.56;100.00;101339.31;5095712;28;20032;-75
2022/12/13 00:58:57;;;;;;;24.15;12.05;;;;;;;-8.58;100.00;101340.16;5095357;28;20020;-75
2022/12/13 01:01:26;;;;;;;27.55;13.38;;;;;;;-8.59;100.00;101331.56;5095743;28;20024;-76
2022/12/13 01:03:57;;;;;;;25.00;12.85;;;;;;;-8.63;100.00;101329.84;5095554;28;20078;-75
2022/12/13 01:06:28;;;;;;;26.67;12.02;;;;;;;-8.66;100.00;101334.19;5095409;28;20036;-75
2022/12/13 01:08:54;;;;;;;32.63;15.35;;;;;;;-8.64;100.00;101335.91;5077549;28;20016;-75
2022/12/13 01:11:19;;;;;;;28.70;13.55;;;;;;;-8.62;100.00;101330.75;5095946;28;20051;-75
2022/12/13 01:13:44;;;;;;;30.42;11.88;;;;;;;-8.63;100.00;101335.03;5095563;28;20066;-75
2022/12/13 01:16:11;;;;;;;24.67;12.30;;;;;;;-8.64;100.00;101328.16;5095456;28;20051;-80
2022/12/13 01:18:38;;;;;;;26.42;11.88;;;;;;;-8.66;100.00;101324.72;5095265;28;20103;-75
2022/12/13 01:21:14;;;;;;;33.13;11.88;;;;;;;-8.70;100.00;101330.78;5094937;28;20059;-76
2022/12/13 01:23:41;;;;;;;23.23;12.55;;;;;;;-8.73;100.00;101323.00;5095381;28;20063;-75
2022/12/13 01:26:08;;;;;;;24.10;12.23;;;;;;;-8.76;100.00;101318.75;5095214;28;20028;-76
2022/12/13 01:28:34;;;;;;;25.02;12.50;;;;;;;-8.78;100.00;101319.59;5095005;28;20066;-75
2022/12/13 01:31:03;;;;;;;21.63;12.13;;;;;;;-8.81;100.00;101314.44;5094877;28;20052;-75
2022/12/13 01:33:30;;;;;;;27.25;12.73;;;;;;;-8.82;100.00;101315.31;5095056;28;20028;-76
2022/12/13 01:35:58;;;;;;;24.60;11.88;;;;;;;-8.81;100.00;101315.28;5094754;28;20016;-76
2022/12/13 01:38:24;;;;;;;28.50;13.73;;;;;;;-8.81;100.00;101314.44;5095186;28;20028;-75
2022/12/13 01:40:56;;;;;;;24.45;12.25;;;;;;;-8.82;100.00;101313.59;5095289;28;20035;-75
2022/12/13 01:43:48;;;;;;;23.55;11.60;;;;;;;-8.82;100.00;101315.31;5094580;28;20066;-75
2022/12/13 01:46:16;;;;;;;23.50;12.20;;;;;;;-8.86;100.00;101323.06;5094696;28;20093;-76
2022/12/13 01:48:48;;;;;;;25.35;12.57;;;;;;;-8.88;100.00;101314.47;5094240;28;20044;-75
2022/12/13 01:51:18;;;;;;;23.42;12.15;;;;;;;-8.91;100.00;101319.63;5077597;28;20390;-75
2022/12/13 01:53:47;;;;;;;24.02;11.85;;;;;;;-8.87;100.00;101325.63;5095422;28;20034;-75
2022/12/13 01:56:19;;;;;;;22.60;11.68;;;;;;;-8.87;100.00;101329.09;5072863;28;20049;-75
2022/12/13 01:58:47;;;;;;;28.42;12.93;;;;;;;-8.89;100.00;101328.22;5073384;28;20082;-75
2022/12/13 02:01:12;;;;;;;26.25;13.07;;;;;;;-8.91;100.00;101327.38;5074396;28;20028;-74
2022/12/13 02:03:38;;;;;;;26.23;12.43;;;;;;;-8.96;100.00;101326.50;5074369;28;20035;-74
2022/12/13 02:06:09;;;;;;;30.23;13.77;;;;;;;-8.99;100.00;101320.50;5074225;28;20016;-75
2022/12/13 02:08:37;;;;;;;27.60;13.27;;;;;;;-8.97;100.00;101326.50;5073783;28;20467;-74
2022/12/13 02:11:04;;;;;;;25.85;12.25;;;;;;;-8.95;100.00;101317.91;5074952;28;20330;-74
2022/12/13 02:13:29;;;;;;;28.45;12.45;;;;;;;-8.92;100.00;101319.66;5074340;28;20162;-75
2022/12/13 02:16:06;;;;;;;25.27;12.55;;;;;;;-8.95;100.00;101315.34;5073947;28;20432;-75
2022/12/13 02:18:38;;;;;;;23.02;12.45;;;;;;;-8.98;100.00;101315.34;5074623;28;20441;-75
2022/12/13 02:21:11;;;;;;;27.98;13.10;;;;;;;-8.99;100.00;101311.03;5074325;28;20103;-75
2022/12/13 02:24:07;;;;;;;23.15;11.98;;;;;;;-9.01;100.00;101315.38;5074265;28;20322;-75
2022/12/13 02:26:55;;;;;;;24.92;12.82;;;;;;;-9.02;100.00;101305.91;5074193;28;20349;-75
2022/12/13 02:29:30;;;;;;;27.80;12.65;;;;;;;-9.04;100.00;101305.06;5073821;28;20024;-79
2022/12/13 02:32:17;;;;;;;28.35;12.20;;;;;;;-9.05;100.00;101303.31;5073446;28;20465;-76
2022/12/13 02:34:49;;;;;;;23.13;11.10;;;;;;;-9.07;100.00;101298.19;5073846;28;20048;-75
2022/12/13 02:37:39;;;;;;;26.58;12.25;;;;;;;-9.07;100.00;101303.34;5074188;28;20108;-75
2022/12/13 02:40:14;;;;;;;32.15;13.25;;;;;;;-9.06;100.00;101299.03;5073696;28;20039;-75
2022/12/13 02:42:52;;;;;;;26.08;12.73;;;;;;;-9.09;100.00;101299.03;5073567;28;20139;-75
2022/12/13 02:45:26;;;;;;;22.45;12.23;;;;;;;-9.10;100.00;101303.34;5073260;28;20025;-76
2022/12/13 02:47:55;;;;;;;24.35;11.82;;;;;;;-9.11;100.00;101293.03;5072809;28;20095;-76
2022/12/13 02:50:22;;;;;;;23.65;11.68;;;;;;;-9.11;100.00;101296.47;5073405;28;20119;-76
2022/12/13 02:52:48;;;;;;;26.40;11.07;;;;;;;-9.10;100.00;101303.34;5073042;28;20563;-76
2022/12/13 02:55:15;;;;;;;31.05;12.63;;;;;;;-9.07;100.00;101302.50;5081979;28;20493;-76
2022/12/13 02:57:43;;;;;;;22.83;11.35;;;;;;;-9.08;100.00;101301.59;5093377;28;20028;-76
2022/12/13 03:00:28;;;;;;;25.65;12.02;;;;;;;-9.07;100.00;101300.75;5093417;28;20024;-76
2022/12/13 03:03:22;;;;;;;24.27;11.32;;;;;;;-9.07;100.00;101298.19;5093169;28;20028;-76
2022/12/13 03:06:28;;;;;;;23.27;10.98;;;;;;;-9.09;100.00;101292.19;5093879;28;20020;-76
2022/12/13 03:09:09;;;;;;;24.80;11.38;;;;;;;-9.10;100.00;101294.75;5092159;28;20063;-76
2022/12/13 03:14:25;;;;;;;21.95;11.00;;;;;;;-9.20;100.00;101295.63;5093659;28;20066;-76
2022/12/13 03:16:53;;;;;;;21.10;10.70;;;;;;;-9.21;100.00;101292.19;5075250;28;20067;-76
2022/12/13 03:19:19;;;;;;;26.58;11.15;;;;;;;-9.25;100.00;101291.34;5093321;28;20020;-76
2022/12/13 03:21:47;;;;;;;22.75;11.23;;;;;;;-9.26;100.00;101294.75;5092958;28;20409;-76
2022/12/13 03:24:16;;;;;;;30.65;11.98;;;;;;;-9.27;100.00;101300.81;5093636;28;20103;-75
2022/12/13 03:26:41;;;;;;;24.48;11.45;;;;;;;-9.25;100.00;101299.06;5093152;28;20061;-76
2022/12/13 03:29:07;;;;;;;24.65;11.45;;;;;;;-9.27;100.00;101300.81;5092962;28;20028;-77
2022/12/13 03:31:32;;;;;;;25.25;12.07;;;;;;;-9.28;100.00;101298.22;5092673;28;20035;-76
2022/12/13 03:33:58;;;;;;;24.48;11.45;;;;;;;-9.32;100.00;101294.78;5093002;28;20028;-76
2022/12/13 03:36:24;;;;;;;22.33;11.65;;;;;;;-9.34;100.00;101293.06;5092903;28;20020;-76
2022/12/13 03:38:51;;;;;;;22.55;11.13;;;;;;;-9.35;100.00;101289.63;5092931;28;20031;-75
2022/12/13 03:41:20;;;;;;;27.42;10.75;;;;;;;-9.33;100.00;101284.47;5093547;28;20084;-75
2022/12/13 03:43:46;;;;;;;24.23;11.70;;;;;;;-9.32;100.00;101297.34;5093050;28;20016;-74
2022/12/13 03:46:12;;;;;;;26.60;11.38;;;;;;;-9.33;100.00;101294.78;5093265;28;20024;-75
2022/12/13 03:48:37;;;;;;;21.52;11.25;;;;;;;-9.36;100.00;101299.94;5092945;28;20031;-75
2022/12/13 03:51:03;;;;;;;23.48;11.18;;;;;;;-9.40;100.00;101297.38;5093106;28;20107;-75
2022/12/13 03:53:30;;;;;;;18.95;10.95;;;;;;;-9.41;100.00;101292.22;5092821;28;20032;-76
2022/12/13 03:55:55;;;;;;;25.65;11.82;;;;;;;-9.40;100.00;101293.94;5092904;28;20075;-75
2022/12/13 03:58:21;;;;;;;26.27;11.43;;;;;;;-9.35;100.00;101289.63;5092877;28;20294;-75
2022/12/13 04:00:46;;;;;;;28.92;11.02;;;;;;;-9.32;100.00;101289.63;5096083;28;20380;-75
2022/12/13 04:03:12;;;;;;;23.05;11.05;;;;;;;-9.34;100.00;101285.31;5096413;28;20106;-76
2022/12/13 04:05:37;;;;;;;23.38;11.98;;;;;;;-9.37;100.00;101287.91;5078636;28;20024;-75
2022/12/13 04:08:03;;;;;;;21.83;10.32;;;;;;;-9.42;100.00;101291.38;5096605;28;20371;-76
2022/12/13 04:10:29;;;;;;;22.70;12.02;;;;;;;-9.42;100.00;101291.38;5096578;28;20024;-75
2022/12/13 04:15:39;;;;;;;28.08;12.27;;;;;;;-9.40;100.00;101288.78;5097026;28;20434;-76
2022/12/13 04:18:04;;;;;;;20.55;10.43;;;;;;;-9.42;100.00;101286.22;5096796;28;20120;-75
2022/12/13 04:20:30;;;;;;;27.42;11.85;;;;;;;-9.45;100.00;101288.78;5096966;28;20030;-76
2022/12/13 04:22:55;;;;;;;22.40;12.05;;;;;;;-9.49;100.00;101281.03;5096324;28;20032;-75
2022/12/13 04:25:21;;;;;;;22.10;11.18;;;;;;;-9.51;100.00;101280.19;5096194;28;20201;-75
2022/12/13 04:27:47;;;;;;;22.83;11.02;;;;;;;-9.53;100.00;101279.34;5096262;28;20028;-75
2022/12/13 04:30:12;;;;;;;21.15;11.35;;;;;;;-9.54;100.00;101273.31;5096313;28;20119;-75
2022/12/13 04:32:37;;;;;;;23.27;12.75;;;;;;;-9.53;100.00;101269.88;5096156;28;20444;-81
2022/12/13 04:35:03;;;;;;;26.30;12.02;;;;;;;-9.53;100.00;101274.19;5096187;28;20500;-75
2022/12/13 04:37:29;;;;;;;25.20;11.35;;;;;;;-9.51;100.00;101275.88;5096286;28;20395;-75
2022/12/13 04:39:55;;;;;;;25.00;11.88;;;;;;;-9.51;100.00;101275.88;5095773;28;20035;-74
2022/12/13 04:42:20;;;;;;;23.25;11.00;;;;;;;-9.49;100.00;101278.47;5096478;28;20024;-75
2022/12/13 04:44:48;;;;;;;26.27;11.75;;;;;;;-9.49;100.00;101279.34;5096397;28;20028;-75
2022/12/13 04:47:14;;;;;;;21.45;11.20;;;;;;;-9.45;100.00;101282.75;5095846;28;20024;-78
2022/12/13 04:49:39;;;;;;;23.60;11.05;;;;;;;-9.40;100.00;101275.91;5095904;28;20024;-76
2022/12/13 04:52:04;;;;;;;26.63;11.18;;;;;;;-9.38;100.00;101276.75;5095821;28;20078;-76
2022/12/13 04:54:31;;;;;;;23.05;11.73;;;;;;;-9.38;100.00;101278.47;5095770;28;20052;-76
2022/12/13 04:56:57;;;;;;;29.00;11.95;;;;;;;-9.38;100.00;101271.59;5095677;28;20079;-76
2022/12/13 04:59:23;;;;;;;29.98;12.45;;;;;;;-9.38;100.00;101274.16;5096282;28;20032;-76
2022/12/13 05:01:49;;;;;;;22.67;10.93;;;;;;;-9.42;100.00;101275.03;5095701;28;20020;-76
2022/12/13 05:04:14;;;;;;;23.92;10.35;;;;;;;-9.43;100.00;101278.47;5095365;28;20024;-76
2022/12/13 05:06:39;;;;;;;25.42;11.93;;;;;;;-9.41;100.00;101277.59;5095281;28;20028;-77
2022/12/13 05:09:06;;;;;;;19.45;10.52;;;;;;;-9.41;100.00;101272.44;5095672;28;20141;-75
2022/12/13 05:11:32;;;;;;;19.80;11.05;;;;;;;-9.44;100.00;101274.19;5094793;28;20043;-76
2022/12/13 05:13:57;;;;;;;27.25;11.85;;;;;;;-9.47;100.00;101269.03;5095093;28;20032;-76
2022/12/13 05:16:23;;;;;;;26.65;11.27;;;;;;;-9.52;100.00;101268.16;5095523;28;20370;-75
2022/12/13 05:18:48;;;;;;;21.70;11.02;;;;;;;-9.54;100.00;101267.31;5095150;28;20352;-76
2022/12/13 05:21:13;;;;;;;24.50;12.43;;;;;;;-9.57;100.00;101270.75;5095373;28;20032;-75
2022/12/13 05:23:39;;;;;;;24.58;11.50;;;;;;;-9.61;100.00;101264.75;5095240;28;20138;-76
2022/12/13 05:26:05;;;;;;;24.38;11.43;;;;;;;-9.60;100.00;101260.44;5095127;28;20104;-76
2022/12/13 05:28:31;;;;;;;21.17;10.30;;;;;;;-9.62;100.00;101259.59;5077130;28;20039;-75
2022/12/13 05:31:04;;;;;;;29.30;11.40;;;;;;;-9.64;100.00;101266.44;5095664;28;20028;-76
2022/12/13 05:33:30;;;;;;;20.92;10.48;;;;;;;-9.65;100.00;101269.91;5095458;28;20020;-75
2022/12/13 05:35:55;;;;;;;22.98;10.90;;;;;;;-9.67;100.00;101264.75;5094645;28;20024;-76
2022/12/13 05:38:20;;;;;;;19.85;10.57;;;;;;;-9.67;100.00;101262.19;5094984;28;20126;-75
2022/12/13 05:40:46;;;;;;;26.20;11.18;;;;;;;-9.64;100.00;101263.88;5095268;28;20028;-75
2022/12/13 05:43:11;;;;;;;23.02;11.75;;;;;;;-9.61;100.00;101258.75;5095308;28;20110;-75
2022/12/13 05:45:36;;;;;;;22.70;10.43;;;;;;;-9.61;100.00;101256.16;5094994;28;20456;-74
2022/12/13 05:48:02;;;;;;;25.65;11.07;;;;;;;-9.60;100.00;101257.88;5077038;28;20361;-76
2022/12/13 05:50:27;;;;;;;20.70;10.45;;;;;;;-9.63;100.00;101263.03;5094809;28;20023;-75
2022/12/13 05:52:53;;;;;;;27.20;10.65;;;;;;;-9.65;100.00;101259.59;5094632;28;20421;-76
2022/12/13 05:55:18;;;;;;;19.65;10.43;;;;;;;-9.67;100.00;101245.84;5094559;28;20058;-75
2022/12/13 05:57:44;;;;;;;21.95;10.80;;;;;;;-9.63;100.00;101247.56;5095251;28;20496;-76
2022/12/13 06:00:10;;;;;;;27.15;10.65;;;;;;;-9.59;100.00;101252.72;5094532;28;20450;-76
2022/12/13 06:02:37;;;;;;;20.40;11.52;;;;;;;-9.59;100.00;101251.88;5094757;28;20117;-76
2022/12/13 06:05:02;;;;;;;23.13;10.52;;;;;;;-9.59;100.00;101246.72;5094627;28;20061;-77
2022/12/13 06:07:28;;;;;;;22.83;10.80;;;;;;;-9.60;100.00;101247.56;5094423;28;20097;-76
2022/12/13 06:09:53;;;;;;;26.60;11.25;;;;;;;-9.60;100.00;101248.44;5094341;28;20030;-76
2022/12/13 06:12:18;;;;;;;21.27;10.68;;;;;;;-9.60;100.00;101251.00;5076260;28;20116;-76
2022/12/13 06:14:44;;;;;;;22.60;10.88;;;;;;;-9.60;100.00;101245.88;5094268;28;20077;-75
2022/12/13 06:17:09;;;;;;;23.08;10.63;;;;;;;-9.57;100.00;101243.28;5094533;28;20028;-75
2022/12/13 06:19:35;;;;;;;25.55;11.98;;;;;;;-9.54;100.00;101247.56;5094583;28;20024;-76
2022/12/13 06:22:00;;;;;;;25.38;11.68;;;;;;;-9.53;100.00;101244.13;5094661;28;20113;-75
2022/12/13 06:24:26;;;;;;;21.30;9.65;;;;;;;-9.54;100.00;101238.97;5093059;28;20035;-75
2022/12/13 06:26:52;;;;;;;23.10;10.90;;;;;;;-9.57;100.00;101242.41;5094235;28;20028;-74
2022/12/13 06:29:19;;;;;;;20.08;10.73;;;;;;;-9.58;100.00;101244.13;5076306;28;20097;-75
2022/12/13 06:31:45;;;;;;;22.73;10.35;;;;;;;-9.60;100.00;101238.13;5093840;28;20058;-74
2022/12/13 06:34:10;;;;;;;19.88;10.85;;;;;;;-9.60;100.00;101240.72;5094046;28;20379;-75
2022/12/13 06:36:35;;;;;;;21.00;10.32;;;;;;;-9.60;100.00;101239.84;5094172;28;20077;-75
2022/12/13 06:39:02;;;;;;;25.70;12.07;;;;;;;-9.62;100.00;101247.56;5093911;28;20437;-75
2022/12/13 06:41:28;;;;;;;23.30;10.95;;;;;;;-9.59;100.00;101252.72;5093739;28;20032;-75
2022/12/13 06:43:53;;;;;;;24.27;11.23;;;;;;;-9.57;100.00;101252.72;5093983;28;20333;-74
2022/12/13 06:46:18;;;;;;;26.50;12.55;;;;;;;-9.54;100.00;101255.28;5093507;28;20028;-75
2022/12/13 06:48:44;;;;;;;26.15;11.77;;;;;;;-9.51;100.00;101262.16;5093186;28;20452;-79
2022/12/13 06:51:10;;;;;;;25.17;11.75;;;;;;;-9.50;100.00;101262.16;5074761;28;20028;-75
2022/12/13 06:53:37;;;;;;;25.05;11.00;;;;;;;-9.51;100.00;101254.44;5093573;28;20196;-77
2022/12/13 06:56:04;;;;;;;25.10;10.82;;;;;;;-9.53;100.00;101248.44;5093938;28;20063;-77
2022/12/13 06:58:29;;;;;;;22.63;11.50;;;;;;;-9.57;100.00;101256.16;5094076;28;20059;-77
2022/12/13 07:01:04;;;;;;;19.02;10.52;;;;;;;-9.59;100.00;101255.28;5093607;28;20420;-76
2022/12/13 07:03:30;;;;;;;21.83;10.05;;;;;;;-9.59;100.00;101257.00;5093270;28;20028;-76
2022/12/13 07:05:56;;;;;;;25.77;11.93;;;;;;;-9.58;100.00;101245.84;5093181;28;20039;-76
2022/12/13 07:08:21;;;;;;;26.83;11.07;;;;;;;-9.59;100.00;101246.72;5092883;28;20024;-78
2022/12/13 07:10:47;;;;;;;20.80;11.20;;;;;;;-9.63;100.00;101243.28;5093450;28;20054;-80
2022/12/13 07:13:12;;;;;;;22.35;10.85;;;;;;;-9.61;100.00;101243.28;5092717;28;20093;-76
2022/12/13 07:15:38;;;;;;;21.40;9.85;;;;;;;-9.61;100.00;101249.28;5075043;28;20028;-78
2022/12/13 07:18:03;;;;;;;26.65;11.15;;;;;;;-9.58;100.00;101254.44;5093022;28;20032;-77
2022/12/13 07:20:29;;;;;;;22.95;10.68;;;;;;;-9.58;100.00;101251.84;5092634;28;20030;-77
2022/12/13 07:22:55;;;;;;;23.10;11.27;;;;;;;-9.58;100.00;101249.28;5093012;28;20414;-76
2022/12/13 07:25:21;;;;;;;23.15;11.02;;;;;;;-9.58;100.00;101254.44;5093567;28;20362;-76
2022/12/13 07:27:47;;;;;;;28.45;11.25;;;;;;;-9.58;100.00;101263.91;5092662;28;20368;-76
2022/12/13 07:30:13;;;;;;;24.25;11.23;;;;;;;-9.55;100.00;101260.44;5092450;28;20031;-76
2022/12/13 07:32:38;;;;;;;19.83;10.45;;;;;;;-9.52;100.00;101266.47;5092942;28;20031;-76
2022/12/13 07:35:04;;;;;;;23.70;11.85;;;;;;;-9.50;100.00;101269.03;5092319;28;20028;-80
2022/12/13 07:37:29;;;;;;;25.58;10.93;;;;;;;-9.52;100.00;101266.47;5092998;28;20036;-76
2022/12/13 07:39:54;;;;;;;25.67;11.50;;;;;;;-9.54;100.00;101268.16;5092524;28;20028;-76
2022/12/13 07:42:20;;;;;;;18.27;10.48;;;;;;;-9.52;100.00;101274.19;5092968;28;20032;-75
2022/12/13 07:44:45;;;;;;;21.75;11.60;;;;;;;-9.52;100.00;101275.88;5092615;28;20452;-76
2022/12/13 07:47:11;;;;;;;22.40;11.23;;;;;;;-9.49;100.00;101278.47;5092640;28;20250;-77
2022/12/13 07:49:37;;;;;;;29.48;12.43;;;;;;;-9.49;100.00;101270.72;5092813;28;20069;-74
2022/12/13 07:52:02;;;;;;;21.30;10.95;;;;;;;-9.48;100.00;101269.88;5093552;28;20527;-75
2022/12/13 07:54:27;;;;;;;26.33;11.70;;;;;;;-9.46;100.00;101268.19;5092228;28;20029;-75
2022/12/13 07:56:53;;;;;;;22.15;10.55;;;;;;;-9.43;100.00;101275.91;5092835;28;20032;-74
2022/12/13 07:59:18;;;;;;;20.20;11.52;;;;;;;-9.42;100.00;101272.44;5092199;28;20032;-75
2022/12/13 08:01:43;;;;;;;29.40;12.50;;;;;;;-9.40;100.00;101269.00;5092554;28;20035;-75
2022/12/13 08:04:09;;;;;;;23.92;11.95;;;;;;;-9.37;100.00;101269.88;5092510;28;20036;-75
2022/12/13 08:06:36;;;;;;;23.27;10.75;;;;;;;-9.35;100.00;101275.91;5092561;28;20020;-75
2022/12/13 08:09:01;;;;;;;19.90;11.13;;;;;;;-9.34;100.00;101280.16;5093021;28;20035;-75
2022/12/13 08:11:26;;;;;;;22.92;11.15;;;;;;;-9.31;100.00;101285.34;5092414;28;20024;-75
2022/12/13 08:13:52;;;;;;;28.77;11.02;;;;;;;-9.28;100.00;101287.91;5092435;28;20054;-74
2022/12/13 08:16:18;;;;;;;25.05;12.13;;;;;;;-9.22;100.00;101288.75;5092147;28;20028;-79
2022/12/13 08:18:46;;;;;;;30.25;12.93;;;;;;;-9.14;100.00;101288.72;5092239;28;20078;-77
2022/12/13 08:21:12;;;;;;;29.38;12.35;;;;;;;-9.06;100.00;101292.16;5092030;28;20036;-76
2022/12/13 08:23:37;;;;;;;33.95;13.82;;;;;;;-9.01;100.00;101289.56;5092720;28;20032;-75
2022/12/13 08:26:04;;;;;;;24.55;11.98;;;;;;;-8.95;100.00;101291.28;5093111;28;20039;-76
2022/12/13 08:28:31;;;;;;;27.70;13.15;;;;;;;-8.92;100.00;101291.28;5092459;28;20024;-74
2022/12/13 08:31:05;;;;;;;30.27;13.10;;;;;;;-8.88;100.00;101290.41;5092373;28;20028;-73
2022/12/13 08:33:32;;;;;;;29.55;12.02;;;;;;;-8.82;100.00;101294.66;5092363;28;20181;-74
2022/12/13 08:36:06;;;;;;;22.73;13.02;;;;;;;-8.77;100.00;101288.63;5092639;28;20115;-73
2022/12/13 08:38:32;;;;;;;29.85;12.98;;;;;;;-8.67;100.00;101299.78;5092990;28;20035;-74
2022/12/13 08:40:58;;;;;;;26.65;12.57;;;;;;;-8.54;100.00;101298.88;5093089;28;20032;-74
2022/12/13 08:43:23;;;;;;;28.75;13.18;;;;;;;-8.39;100.00;101297.91;5092311;28;20109;-74
2022/12/13 08:45:49;;;;;;;32.30;13.30;;;;;;;-8.22;100.00;101295.25;5092903;28;20079;-74
2022/12/13 08:48:14;;;;;;;21.83;11.93;;;;;;;-8.08;100.00;101291.72;5096120;28;20035;-76
2022/12/13 08:50:42;;;;;;;29.60;13.57;;;;;;;-7.97;100.00;101295.94;5095813;28;20047;-74
2022/12/13 08:53:07;;;;;;;35.88;14.65;;;;;;;-7.86;100.00;101284.69;5096031;28;20032;-75
2022/12/13 08:55:33;;;;;;;36.22;14.93;;;;;;;-7.73;100.00;101286.31;5095841;28;20478;-74
2022/12/13 08:58:02;;;;;;;28.30;14.10;;;;;;;-7.63;100.00;101293.13;5077728;28;20035;-74
2022/12/13 09:00:27;;;;;;;30.73;14.38;;;;;;;-7.52;100.00;101293.03;5095796;28;20077;-75
2022/12/13 09:02:56;;;;;;;33.83;16.40;;;;;;;-7.42;100.00;101296.38;5095709;28;20417;-72
2022/12/13 09:05:22;;;;;;;33.67;15.82;;;;;;;-7.35;100.00;101294.59;5096367;28;20028;-73
2022/12/13 09:07:47;;;;;;;37.85;15.80;;;;;;;-7.27;100.00;101293.69;5095742;28;20024;-74
2022/12/13 09:10:12;;;;;;;35.15;16.42;;;;;;;-7.16;100.00;101303.91;5095943;28;20107;-76
2022/12/13 09:12:40;;;;;;;37.60;16.35;;;;;;;-7.05;100.00;101298.63;5095594;28;20069;-74
2022/12/13 09:15:06;;;;;;;32.13;15.43;;;;;;;-6.96;100.00;101295.94;5095387;28;20128;-72
2022/12/13 09:17:32;;;;;;;30.25;15.32;;;;;;;-6.85;100.00;101301.00;5095359;28;20471;-74
2022/12/13 09:19:57;;;;;;;36.45;17.40;;;;;;;-6.76;100.00;101300.91;5095538;28;20059;-74
2022/12/13 09:22:22;;;;;;;34.28;17.75;;;;;;;-6.71;100.00;101300.84;5095364;28;20055;-74
2022/12/13 09:24:48;;;;;;;31.92;17.05;;;;;;;-6.62;100.00;101300.72;5095385;28;20492;-74
2022/12/13 09:27:13;;;;;;;36.35;18.10;;;;;;;-6.53;100.00;101299.75;5095184;28;20111;-74
2022/12/13 09:29:39;;;;;;;36.88;17.85;;;;;;;-6.41;100.00;101304.78;5094847;28;20464;-75
2022/12/13 09:32:04;;;;;;;37.63;17.95;;;;;;;-6.30;100.00;101307.25;5076773;28;20465;-74
2022/12/13 09:34:31;;;;;;;41.38;19.80;;;;;;;-6.14;100.00;101301.84;5076576;28;20169;-74
2022/12/13 09:36:57;;;;;;;41.47;18.90;;;;;;;-6.00;100.00;101297.34;5095144;28;20016;-75
2022/12/13 09:39:22;;;;;;;40.10;18.05;;;;;;;-5.88;100.00;101298.84;5095004;28;20034;-75
2022/12/13 09:41:53;;;;;;;46.00;18.27;;;;;;;-5.78;100.00;101302.16;5095178;28;20032;-76
2022/12/13 09:44:26;;;;;;;41.00;18.73;;;;;;;-5.74;100.00;101299.50;5095312;28;20024;-75
2022/12/13 09:46:53;;;;;;;39.35;18.42;;;;;;;-5.68;100.00;101299.41;5095518;28;20058;-76
2022/12/13 09:49:36;;;;;;;37.33;18.38;;;;;;;-5.61;100.00;101302.75;5076234;28;20061;-76
2022/12/13 09:52:05;;;;;;;37.95;18.35;;;;;;;-5.56;100.00;101292.31;5095001;28;20032;-75
2022/12/13 09:54:32;;;;;;;40.92;19.92;;;;;;;-5.48;100.00;101295.63;5094011;28;20024;-75
2022/12/13 09:56:58;;;;;;;39.55;19.35;;;;;;;-5.40;100.00;101292.94;5095074;28;20094;-75
2022/12/13 09:59:32;;;;;;;39.03;18.95;;;;;;;-5.31;100.00;101296.19;5076669;28;20372;-75
2022/12/13 10:02:13;;;;;;;49.97;21.20;;;;;;;-5.20;100.00;101295.16;5094782;28;20440;-75
2022/12/13 10:04:38;;;;;;;42.20;20.98;;;;;;;-5.11;100.00;101288.94;5095065;28;20089;-74
2022/12/13 10:07:12;;;;;;;40.75;20.52;;;;;;;-5.03;100.00;101287.94;5094818;28;20387;-75
2022/12/13 10:09:38;;;;;;;41.50;21.30;;;;;;;-4.95;100.00;101282.59;5094488;28;20028;-74
2022/12/13 10:12:03;;;;;;;39.42;20.15;;;;;;;-4.85;100.00;101280.66;5094469;28;20456;-74
2022/12/13 10:14:39;;;;;;;45.15;20.60;;;;;;;-4.75;100.00;101283.94;5094223;28;20124;-73
2022/12/13 10:17:08;;;;;;;45.92;19.83;;;;;;;-4.67;100.00;101277.72;5094862;28;20344;-73
2022/12/13 10:19:40;;;;;;;40.97;21.48;;;;;;;-4.57;100.00;101275.75;5093961;28;20020;-74
2022/12/13 10:22:12;;;;;;;43.05;21.50;;;;;;;-4.48;100.00;101273.00;5075993;28;20016;-73
2022/12/13 10:25:02;;;;;;;37.30;20.20;;;;;;;-4.46;100.00;101266.03;5094283;28;20024;-74
2022/12/13 10:27:42;;;;;;;38.85;21.13;;;;;;;-4.40;100.00;101256.38;5094454;28;20047;-73
2022/12/13 10:30:09;;;;;;;38.70;21.23;;;;;;;-4.33;100.00;101250.16;5094290;28;20413;-74
2022/12/13 10:32:52;;;;;;;38.35;20.50;;;;;;;-4.29;100.00;101244.84;5094003;28;20024;-74
2022/12/13 10:35:17;;;;;;;37.55;19.95;;;;;;;-4.21;100.00;101249.91;5093887;28;20493;-74
2022/12/13 10:37:43;;;;;;;57.90;21.63;;;;;;;-4.14;100.00;101248.00;5094109;28;20028;-73
2022/12/13 10:40:23;;;;;;;38.22;20.98;;;;;;;-4.07;100.00;101241.78;5094294;28;20425;-76
2022/12/13 10:43:14;;;;;;;45.92;21.15;;;;;;;-4.04;100.00;101244.31;5094660;28;20345;-76
2022/12/13 10:45:56;;;;;;;50.00;20.95;;;;;;;-3.97;100.00;101240.69;5093886;28;20031;-74
2022/12/13 10:48:35;;;;;;;45.15;19.98;;;;;;;-3.86;100.00;101248.22;5094152;28;20028;-75
2022/12/13 10:51:09;;;;;;;40.97;21.00;;;;;;;-3.71;100.00;101244.38;5093921;28;20368;-74
2022/12/13 10:53:40;;;;;;;37.45;21.02;;;;;;;-3.55;100.00;101237.91;5093783;28;20453;-75
2022/12/13 10:56:06;;;;;;;39.20;21.02;;;;;;;-3.44;100.00;101236.78;5094426;28;20040;-75
2022/12/13 10:58:42;;;;;;;39.92;20.42;;;;;;;-3.35;100.00;101233.09;5093717;28;20032;-75
2022/12/13 11:01:29;;;;;;;40.67;21.75;;;;;;;-3.24;100.00;101231.03;5093572;28;20035;-76
2022/12/13 11:03:58;;;;;;;37.13;21.08;;;;;;;-3.15;100.00;101229.94;5094078;28;20035;-76
2022/12/13 11:06:26;;;;;;;40.97;22.63;;;;;;;-3.07;100.00;101228.84;5093903;28;20028;-73
2022/12/13 11:08:52;;;;;;;47.33;22.30;;;;;;;-3.01;100.00;101231.28;5092989;28;20117;-77
2022/12/13 11:11:27;;;;;;;48.63;21.77;;;;;;;-2.97;100.00;101241.59;5093089;28;20405;-76